Pagrindinis puslapis
METAR-TAF:

METAR-TAF

Oro uostai :

Triestas-Ronchi dei Legionari, Italija

platuma: 45-49N, ilguma: 013-29E, Aukštis: 12 m

Dabartinis oras

Ataskaita buvo paskelbta 37 minutes, ne 13:20 UTC
Vėjas 6 kt iš Pietų/Pietvakarių
Temperatūra 20°C
Drėgmė 37%
Slėgis 1030 hPa
Matomumas 10 km arba daugiau

METAR: LIPQ 251320Z AUTO 20006KT 9999 NCD 20/05 Q1030

Laikas: 14:57 (13:57 UTC)

Prognozė

Ataskaita buvo paskelbta 2 valandos ir 57 minutes, ne 11:00 UTC
Prognozė galioja nuo 25 metu 12 UTC su 26 metu 12 UTC
Vėjas 5 kt nuo kintamojo kryptimis
Matomumas 10 km arba daugiau
nėra debesų žemiau 1500 m ir nėra kamuolinių lietaus debesų
Tapsmas
nuo 25 metu 20 UTC su 25 metu 22 UTC
Matomumas: 3000 m
rūkana
Laikinai
nuo 26 metu 00 UTC su 26 metu 06 UTC
Matomumas: 1200 m
Rūkas lopais
Tapsmas
nuo 26 metu 08 UTC su 26 metu 10 UTC
Matomumas: 8000 m

TAF: LIPQ 251100Z 2512/2612 VRB05KT CAVOK BECMG 2520/2522 3000 BR TEMPO 2600/2606 1200 BCFG BECMG 2608/2610 8000

Orai ataskaitas ir orų prognozės (METAR, TAF).

turimą stotys yra geltonos ir raudonos taškus žemėlapyje.

Perkelti pele per norėdami pamatyti stoties vardą.

Tada spustelėkite, norėdami matyti oro stebėjimo ir prognozės.

Norėdami pakeisti žemėlapį: spustelėkite ant žalios mygtukų su juodo kryžiaus žemyn,; žalią mygtuką su brūkšneliu, jei norite nutolinti; arba žalių rodyklių gretimoms žemėlapius.


METAR-TAF: